createdAt,value
2017-10-27T00:00:13.733Z,12.40
2017-10-27T00:02:41.395Z,12.40
2017-10-27T00:05:08.966Z,12.30
2017-10-27T00:07:36.607Z,12.20
2017-10-27T00:10:04.205Z,12.10
2017-10-27T00:12:32.226Z,12.00
2017-10-27T00:15:00.574Z,12.00
2017-10-27T00:17:28.152Z,12.00
2017-10-27T00:19:56.522Z,11.80
2017-10-27T00:22:24.090Z,11.80
2017-10-27T00:24:51.833Z,11.70
2017-10-27T00:27:19.416Z,11.50
2017-10-27T00:29:48.051Z,11.50
2017-10-27T00:32:15.666Z,11.50
2017-10-27T00:34:44.010Z,11.50
2017-10-27T00:37:11.657Z,11.40
2017-10-27T00:39:39.222Z,11.50
2017-10-27T00:42:06.817Z,11.50
2017-10-27T00:44:35.148Z,11.60
2017-10-27T00:47:02.764Z,11.60
2017-10-27T00:49:31.101Z,11.60
2017-10-27T00:51:58.935Z,11.50
2017-10-27T00:54:26.505Z,11.60
2017-10-27T00:56:54.067Z,11.60
2017-10-27T00:59:21.658Z,11.50
2017-10-27T01:01:49.246Z,11.50
2017-10-27T01:04:17.639Z,11.60
2017-10-27T01:06:45.274Z,11.60
2017-10-27T01:09:13.626Z,11.80
2017-10-27T01:11:41.210Z,11.80
2017-10-27T01:14:09.852Z,11.90
2017-10-27T01:16:37.423Z,11.90
2017-10-27T01:19:04.990Z,11.90
2017-10-27T01:21:32.578Z,11.80
2017-10-27T01:24:00.910Z,11.90
2017-10-27T01:26:28.871Z,11.90
2017-10-27T01:28:56.454Z,11.90
2017-10-27T01:31:24.038Z,11.90
2017-10-27T01:33:53.110Z,11.90
2017-10-27T01:36:20.754Z,11.90
2017-10-27T01:38:48.313Z,12.00
2017-10-27T01:41:16.177Z,12.10
2017-10-27T01:43:43.790Z,12.10
2017-10-27T01:46:12.122Z,12.30
2017-10-27T01:48:39.732Z,12.30
2017-10-27T01:51:08.071Z,12.20
2017-10-27T01:53:35.707Z,12.20
2017-10-27T01:56:03.362Z,12.20
2017-10-27T01:58:31.295Z,12.20
2017-10-27T02:00:59.623Z,12.30
2017-10-27T02:03:27.262Z,12.30
2017-10-27T02:05:55.089Z,12.30
2017-10-27T02:08:23.472Z,12.40
2017-10-27T02:10:51.823Z,12.40
2017-10-27T02:13:19.483Z,12.40
2017-10-27T02:15:47.068Z,12.40
2017-10-27T02:18:15.491Z,12.40
2017-10-27T02:20:43.082Z,12.40
2017-10-27T02:23:10.646Z,12.40
2017-10-27T02:25:38.580Z,12.30
2017-10-27T02:28:06.184Z,12.30
2017-10-27T02:30:33.757Z,12.30
2017-10-27T02:33:02.106Z,12.30
2017-10-27T02:35:29.697Z,12.20
2017-10-27T02:37:58.074Z,12.30
2017-10-27T02:40:25.670Z,12.20
2017-10-27T02:42:53.515Z,12.20
2017-10-27T02:45:21.097Z,12.20
2017-10-27T02:47:48.722Z,12.30
2017-10-27T02:50:17.094Z,12.20
2017-10-27T02:52:45.435Z,12.20
2017-10-27T02:55:13.046Z,12.20
2017-10-27T02:57:40.669Z,12.20
2017-10-27T03:00:08.253Z,12.20
2017-10-27T03:02:36.594Z,12.30
2017-10-27T03:05:04.189Z,12.30
2017-10-27T03:07:32.523Z,12.20
2017-10-27T03:10:00.675Z,12.20
2017-10-27T03:12:28.246Z,12.20
2017-10-27T03:14:55.829Z,12.20
2017-10-27T03:17:23.464Z,12.20
2017-10-27T03:19:51.037Z,12.20
2017-10-27T03:22:19.397Z,12.20
2017-10-27T03:24:46.998Z,12.20
2017-10-27T03:27:15.042Z,12.20
2017-10-27T03:29:42.855Z,12.20
2017-10-27T03:32:11.193Z,12.20
2017-10-27T03:34:39.574Z,12.20
2017-10-27T03:37:07.142Z,12.20
2017-10-27T03:39:34.818Z,12.10
2017-10-27T03:42:03.154Z,12.10
2017-10-27T03:44:30.746Z,12.10
2017-10-27T03:46:58.330Z,12.10
2017-10-27T03:49:26.686Z,12.20
2017-10-27T03:51:54.258Z,12.20
2017-10-27T03:54:23.013Z,12.20
2017-10-27T03:56:50.579Z,12.20
2017-10-27T03:59:18.143Z,12.20
2017-10-27T04:01:45.758Z,12.10
2017-10-27T04:04:13.350Z,12.20
2017-10-27T04:06:40.964Z,12.20
2017-10-27T04:09:08.822Z,12.30
2017-10-27T04:11:37.553Z,12.20
2017-10-27T04:14:05.125Z,12.20
2017-10-27T04:16:32.698Z,12.20
2017-10-27T04:19:00.317Z,12.30
2017-10-27T04:21:27.894Z,12.20
2017-10-27T04:23:55.499Z,12.30
2017-10-27T04:26:23.843Z,12.30
2017-10-27T04:28:51.612Z,12.30
2017-10-27T04:31:19.178Z,12.30
2017-10-27T04:33:47.130Z,12.20
2017-10-27T04:36:14.719Z,12.30
2017-10-27T04:38:43.047Z,12.40
2017-10-27T04:41:10.657Z,12.40
2017-10-27T04:43:38.998Z,12.40
2017-10-27T04:46:07.400Z,12.40
2017-10-27T04:48:35.028Z,12.40
2017-10-27T04:51:02.891Z,12.40
2017-10-27T04:53:30.503Z,12.50
2017-10-27T04:55:59.121Z,12.50
2017-10-27T04:58:26.694Z,12.50
2017-10-27T05:00:54.270Z,12.50
2017-10-27T05:03:21.860Z,12.60
2017-10-27T05:05:50.202Z,12.60
2017-10-27T05:08:17.822Z,12.50
2017-10-27T05:10:45.594Z,12.50
2017-10-27T05:13:13.486Z,12.60
2017-10-27T05:15:41.062Z,12.60
2017-10-27T05:18:14.670Z,12.60
2017-10-27T05:20:47.769Z,12.60
2017-10-27T05:23:21.338Z,12.50
2017-10-27T05:25:48.918Z,12.50
2017-10-27T05:28:16.512Z,12.50
2017-10-27T05:30:44.125Z,12.50
2017-10-27T05:33:11.711Z,12.50
2017-10-27T05:35:40.116Z,12.50
2017-10-27T05:38:07.693Z,12.50
2017-10-27T05:40:35.839Z,12.50
2017-10-27T05:43:04.169Z,12.50
2017-10-27T05:45:31.729Z,12.50
2017-10-27T05:47:59.349Z,12.50
2017-10-27T05:50:26.906Z,12.40
2017-10-27T05:52:54.506Z,12.40
2017-10-27T05:55:22.093Z,12.30
2017-10-27T05:57:50.029Z,12.30
2017-10-27T06:00:17.612Z,12.30
2017-10-27T06:02:45.228Z,12.30
2017-10-27T06:05:12.855Z,12.30
2017-10-27T06:07:41.172Z,12.30
2017-10-27T06:10:08.778Z,12.30
2017-10-27T06:12:36.375Z,12.30
2017-10-27T06:15:04.081Z,12.30
2017-10-27T06:17:31.665Z,12.20
2017-10-27T06:19:59.265Z,12.20
2017-10-27T06:22:26.837Z,12.20
2017-10-27T06:24:54.795Z,12.20
2017-10-27T06:27:22.422Z,12.20
2017-10-27T06:29:50.795Z,12.20
2017-10-27T06:32:19.274Z,12.20
2017-10-27T06:34:47.625Z,12.30
2017-10-27T06:37:15.234Z,12.30
2017-10-27T06:39:42.827Z,12.30
2017-10-27T06:42:10.702Z,12.30
2017-10-27T06:44:38.286Z,12.20
2017-10-27T06:47:05.863Z,12.20
2017-10-27T06:49:34.306Z,12.20
2017-10-27T06:52:01.898Z,12.20
2017-10-27T06:54:29.544Z,12.30
2017-10-27T06:56:57.114Z,12.30
2017-10-27T06:59:25.053Z,12.20
2017-10-27T07:01:52.665Z,12.20
2017-10-27T07:04:21.036Z,12.20
2017-10-27T07:06:49.477Z,12.20
2017-10-27T07:09:17.047Z,12.20
2017-10-27T07:11:44.646Z,12.20
2017-10-27T07:14:12.228Z,12.20
2017-10-27T07:16:39.822Z,12.30
2017-10-27T07:19:07.398Z,12.20
2017-10-27T07:21:35.768Z,12.20
2017-10-27T07:24:03.370Z,12.20
2017-10-27T07:26:31.275Z,12.30
2017-10-27T07:29:01.185Z,12.40
2017-10-27T07:31:29.026Z,12.30
2017-10-27T07:33:56.610Z,12.30
2017-10-27T07:36:24.294Z,12.20
2017-10-27T07:38:51.891Z,12.30
2017-10-27T07:41:19.455Z,12.30
2017-10-27T07:43:47.358Z,12.30
2017-10-27T07:46:14.946Z,12.30
2017-10-27T07:48:42.519Z,12.50
2017-10-27T07:51:10.906Z,13.00
2017-10-27T07:53:39.353Z,13.20
2017-10-27T07:56:07.416Z,13.20
2017-10-27T07:58:34.983Z,13.40
2017-10-27T08:01:02.534Z,13.50
2017-10-27T08:03:30.134Z,13.60
2017-10-27T08:05:58.562Z,14.50
2017-10-27T08:08:26.151Z,14.50
2017-10-27T08:10:53.704Z,15.80
2017-10-27T08:13:21.555Z,17.50
2017-10-27T08:15:49.124Z,19.80
2017-10-27T08:18:16.712Z,19.70
2017-10-27T08:20:45.050Z,19.90
2017-10-27T08:23:12.625Z,19.90
2017-10-27T08:25:40.231Z,20.80
2017-10-27T08:28:08.583Z,22.60
2017-10-27T08:30:36.926Z,23.00
2017-10-27T08:33:04.489Z,23.00
2017-10-27T08:35:32.113Z,24.20
2017-10-27T08:37:59.925Z,25.80
2017-10-27T08:40:27.771Z,27.00
2017-10-27T08:42:55.343Z,26.40
2017-10-27T08:45:22.915Z,27.20
2017-10-27T08:47:50.489Z,28.30
2017-10-27T08:50:18.841Z,28.80
2017-10-27T08:52:46.433Z,28.80
2017-10-27T08:55:14.774Z,27.30
2017-10-27T08:57:42.624Z,27.20
2017-10-27T09:00:10.195Z,27.90
2017-10-27T09:02:37.739Z,25.20
2017-10-27T09:05:05.338Z,24.40
2017-10-27T09:07:32.914Z,25.90
2017-10-27T09:10:01.541Z,21.30
2017-10-27T09:12:29.170Z,21.20
2017-10-27T09:14:56.819Z,20.00
2017-10-27T09:17:25.194Z,18.00
2017-10-27T09:19:53.549Z,17.40
2017-10-27T09:22:21.189Z,17.40
2017-10-27T09:24:48.777Z,17.40
2017-10-27T09:27:17.470Z,18.80
2017-10-27T09:29:45.071Z,18.80
2017-10-27T09:32:12.658Z,18.40
2017-10-27T09:34:40.465Z,20.00
2017-10-27T09:37:08.800Z,22.60
2017-10-27T09:39:36.532Z,22.60
2017-10-27T09:42:04.176Z,23.90
2017-10-27T09:44:31.833Z,25.70
2017-10-27T09:46:59.394Z,28.10
2017-10-27T09:49:27.005Z,28.90
2017-10-27T09:51:54.597Z,26.20
2017-10-27T09:54:23.239Z,30.10
2017-10-27T09:56:50.812Z,30.00
2017-10-27T09:59:18.393Z,31.80
2017-10-27T10:01:46.757Z,30.20
2017-10-27T10:04:14.414Z,30.20
2017-10-27T10:06:42.018Z,29.50
2017-10-27T10:09:09.597Z,27.70
2017-10-27T10:11:37.449Z,26.60
2017-10-27T10:14:04.996Z,25.20
2017-10-27T10:16:33.390Z,21.70
2017-10-27T10:19:00.990Z,21.50
2017-10-27T10:21:28.632Z,19.90
2017-10-27T10:23:56.278Z,18.70
2017-10-27T10:26:23.849Z,19.90
2017-10-27T10:28:51.442Z,24.10
2017-10-27T10:31:18.994Z,28.40
2017-10-27T10:33:46.583Z,30.10
2017-10-27T10:36:14.922Z,32.00
2017-10-27T10:38:42.522Z,31.90
2017-10-27T10:41:10.866Z,32.50
2017-10-27T10:43:38.479Z,32.40
2017-10-27T10:46:06.066Z,33.30
2017-10-27T10:48:33.610Z,33.10
2017-10-27T10:51:01.270Z,32.10
2017-10-27T10:53:28.831Z,32.30
2017-10-27T10:55:56.725Z,30.10
2017-10-27T10:58:24.298Z,31.50
2017-10-27T11:00:51.877Z,33.70
2017-10-27T11:03:20.251Z,35.30
2017-10-27T11:05:47.817Z,35.10
2017-10-27T11:08:16.153Z,33.00
2017-10-27T11:10:43.763Z,32.90
2017-10-27T11:13:12.110Z,33.50
2017-10-27T11:18:20.315Z,34.20
2017-10-27T11:20:47.887Z,34.20
2017-10-27T11:23:15.496Z,34.70
2017-10-27T11:25:43.314Z,34.00
2017-10-27T11:28:11.178Z,34.40
2017-10-27T11:30:38.955Z,33.70
2017-10-27T11:33:06.533Z,33.70
2017-10-27T11:35:34.894Z,35.90
2017-10-27T11:38:02.454Z,35.90
2017-10-27T11:40:30.122Z,35.70
2017-10-27T11:42:58.525Z,30.90
2017-10-27T11:45:26.122Z,30.80
2017-10-27T11:47:53.710Z,27.50
2017-10-27T11:50:21.387Z,26.70
2017-10-27T11:52:48.981Z,26.20
2017-10-27T11:55:16.588Z,26.30
2017-10-27T11:57:44.190Z,25.60
2017-10-27T12:00:13.793Z,26.90
2017-10-27T12:02:41.373Z,27.90
2017-10-27T12:05:08.977Z,26.10
2017-10-27T12:07:36.549Z,23.80
2017-10-27T12:10:04.158Z,22.30
2017-10-27T12:12:31.744Z,21.40
2017-10-27T12:14:59.315Z,20.40
2017-10-27T12:17:28.633Z,19.50
2017-10-27T12:19:57.027Z,19.10
2017-10-27T12:22:24.647Z,19.10
2017-10-27T12:24:52.226Z,19.30
2017-10-27T12:27:20.886Z,20.70
2017-10-27T12:29:48.454Z,20.70
2017-10-27T12:32:16.146Z,23.30
2017-10-27T12:34:44.685Z,25.30
2017-10-27T12:37:12.294Z,25.30
2017-10-27T12:39:40.639Z,27.90
2017-10-27T12:42:08.247Z,27.80
2017-10-27T12:44:36.170Z,26.40
2017-10-27T12:47:03.777Z,24.40
2017-10-27T12:49:31.352Z,22.80
2017-10-27T12:51:59.290Z,21.30
2017-10-27T12:54:26.851Z,20.00
2017-10-27T12:56:54.782Z,19.20
2017-10-27T12:59:22.389Z,18.40
2017-10-27T13:01:49.996Z,18.10
2017-10-27T13:04:17.586Z,17.70
2017-10-27T13:06:45.926Z,18.70
2017-10-27T13:09:13.503Z,18.70
2017-10-27T13:11:41.227Z,20.80
2017-10-27T13:14:09.119Z,23.00
2017-10-27T13:16:36.678Z,24.00
2017-10-27T13:19:04.309Z,25.20
2017-10-27T13:21:31.947Z,25.30
2017-10-27T13:23:59.538Z,25.40
2017-10-27T13:26:27.384Z,25.40
2017-10-27T13:28:55.002Z,25.70
2017-10-27T13:31:22.571Z,25.60
2017-10-27T13:33:50.931Z,25.00
2017-10-27T13:36:18.524Z,25.00
2017-10-27T13:38:46.886Z,23.90
2017-10-27T13:41:15.262Z,22.30
2017-10-27T13:43:43.693Z,20.90
2017-10-27T13:46:11.298Z,20.80
2017-10-27T13:48:38.884Z,19.70
2017-10-27T13:51:06.543Z,19.80
2017-10-27T13:53:34.115Z,20.50
2017-10-27T13:56:01.708Z,21.30
2017-10-27T13:58:29.306Z,21.80
2017-10-27T14:00:57.713Z,22.90
2017-10-27T14:03:25.305Z,22.90
2017-10-27T14:05:52.930Z,23.20
2017-10-27T14:08:20.652Z,23.30
2017-10-27T14:10:48.426Z,23.50
2017-10-27T14:13:16.209Z,23.00
2017-10-27T14:15:43.850Z,22.60
2017-10-27T14:18:12.199Z,22.20
2017-10-27T14:20:39.906Z,22.20
2017-10-27T14:23:08.259Z,21.20
2017-10-27T14:25:35.869Z,21.20
2017-10-27T14:28:03.482Z,20.80
2017-10-27T14:30:31.299Z,19.90
2017-10-27T14:35:33.125Z,18.90
2017-10-27T14:38:01.556Z,18.90
2017-10-27T14:40:30.384Z,18.90
2017-10-27T14:45:32.396Z,18.60
2017-10-27T14:48:00.745Z,18.00
2017-10-27T14:50:29.207Z,18.00
2017-10-27T14:52:57.083Z,17.70
2017-10-27T14:55:24.700Z,17.70
2017-10-27T14:57:52.293Z,17.60
2017-10-27T15:00:19.926Z,17.30
2017-10-27T15:02:47.515Z,17.10
2017-10-27T15:05:15.149Z,16.80
2017-10-27T15:07:42.762Z,16.60
2017-10-27T15:10:14.062Z,16.30
2017-10-27T15:12:41.670Z,16.30
2017-10-27T15:15:10.354Z,16.10
2017-10-27T15:17:38.682Z,16.00
2017-10-27T15:20:06.265Z,15.90
2017-10-27T15:22:33.880Z,15.80
2017-10-27T15:25:01.454Z,15.70
2017-10-27T15:27:29.060Z,15.70
2017-10-27T15:29:56.645Z,15.70
2017-10-27T15:32:25.050Z,15.60
2017-10-27T15:34:52.773Z,15.60
2017-10-27T15:37:21.423Z,15.20
2017-10-27T15:39:49.012Z,15.20
2017-10-27T15:42:16.661Z,15.10
2017-10-27T15:44:44.327Z,15.00
2017-10-27T15:47:11.879Z,15.00
2017-10-27T15:49:39.481Z,14.90
2017-10-27T15:52:07.374Z,14.80
2017-10-27T15:54:34.986Z,14.80
2017-10-27T15:57:03.366Z,14.70
2017-10-27T15:59:31.266Z,14.60
2017-10-27T16:01:58.932Z,14.60
2017-10-27T16:04:26.582Z,14.50
2017-10-27T16:06:54.163Z,14.50
2017-10-27T16:09:21.798Z,14.40
2017-10-27T16:11:49.438Z,14.30
2017-10-27T16:14:17.923Z,14.30
2017-10-27T16:16:46.330Z,14.20
2017-10-27T16:19:14.555Z,14.20
2017-10-27T16:21:42.557Z,14.10
2017-10-27T16:24:10.898Z,14.00
2017-10-27T16:26:38.478Z,14.00
2017-10-27T16:29:06.863Z,13.60
2017-10-27T16:31:35.213Z,13.30
2017-10-27T16:34:02.807Z,13.30
2017-10-27T16:36:31.256Z,12.80
2017-10-27T16:38:58.859Z,12.80
2017-10-27T16:41:26.476Z,12.60
2017-10-27T16:43:55.295Z,12.40
2017-10-27T16:46:23.652Z,12.20
2017-10-27T16:48:51.248Z,12.20
2017-10-27T16:51:18.826Z,12.00
2017-10-27T16:53:46.427Z,11.90
2017-10-27T16:58:51.489Z,11.70
2017-10-27T17:01:19.116Z,11.70
2017-10-27T17:03:46.701Z,11.70
2017-10-27T17:06:14.635Z,11.70
2017-10-27T17:08:42.231Z,11.60
2017-10-27T17:11:09.860Z,11.50
2017-10-27T17:13:37.514Z,11.70
2017-10-27T17:16:05.125Z,11.60
2017-10-27T17:18:32.756Z,11.60
2017-10-27T17:21:00.368Z,11.60
2017-10-27T17:23:28.052Z,11.50
2017-10-27T17:25:55.630Z,11.40
2017-10-27T17:28:23.722Z,11.30
2017-10-27T17:30:51.318Z,11.20
2017-10-27T17:33:18.894Z,11.10
2017-10-27T17:35:47.606Z,10.90
2017-10-27T17:38:15.195Z,10.80
2017-10-27T17:40:43.954Z,10.40
2017-10-27T17:43:11.678Z,10.40
2017-10-27T17:45:39.307Z,10.20
2017-10-27T17:48:07.622Z,9.90
2017-10-27T17:50:35.575Z,9.90
2017-10-27T17:53:03.134Z,9.90
2017-10-27T17:55:30.717Z,9.90
2017-10-27T17:57:58.325Z,9.90
2017-10-27T18:00:25.911Z,9.90
2017-10-27T18:02:53.556Z,9.70
2017-10-27T18:05:21.972Z,9.40
2017-10-27T18:07:49.819Z,9.40
2017-10-27T18:10:17.449Z,9.40
2017-10-27T18:12:45.375Z,9.20
2017-10-27T18:15:12.992Z,9.10
2017-10-27T18:17:41.338Z,9.00
2017-10-27T18:20:08.964Z,9.00
2017-10-27T18:22:36.682Z,9.00
2017-10-27T18:25:05.046Z,8.90
2017-10-27T18:27:32.646Z,8.90
2017-10-27T18:30:00.284Z,8.80
2017-10-27T18:32:28.772Z,8.70
2017-10-27T18:34:57.428Z,8.60
2017-10-27T18:37:25.011Z,8.60
2017-10-27T18:39:53.365Z,8.50
2017-10-27T18:42:21.052Z,8.40
2017-10-27T18:44:48.683Z,8.50
2017-10-27T18:47:16.272Z,8.40
2017-10-27T18:49:44.733Z,8.30
2017-10-27T18:52:13.463Z,8.10
2017-10-27T18:54:41.035Z,8.10
2017-10-27T18:57:08.693Z,8.10
2017-10-27T18:59:36.399Z,8.00
2017-10-27T19:02:04.041Z,7.90
2017-10-27T19:04:32.501Z,7.80
2017-10-27T19:07:00.232Z,7.80
2017-10-27T19:09:31.546Z,7.70
2017-10-27T19:11:59.258Z,7.70
2017-10-27T19:14:26.873Z,7.70
2017-10-27T19:16:54.527Z,7.70
2017-10-27T19:19:22.148Z,7.60
2017-10-27T19:21:49.803Z,7.50
2017-10-27T19:24:17.407Z,7.40
2017-10-27T19:26:46.151Z,7.30
2017-10-27T19:29:13.752Z,7.40
2017-10-27T19:31:41.335Z,7.40
2017-10-27T19:34:08.960Z,7.30
2017-10-27T19:36:36.560Z,7.20
2017-10-27T19:39:05.100Z,7.10
2017-10-27T19:41:32.711Z,7.10
2017-10-27T19:44:00.350Z,7.00
2017-10-27T19:46:27.951Z,7.00
2017-10-27T19:48:55.582Z,6.90
2017-10-27T19:51:23.175Z,6.70
2017-10-27T19:53:51.106Z,6.70
2017-10-27T19:56:18.723Z,6.80
2017-10-27T19:58:46.461Z,6.80
2017-10-27T20:01:14.038Z,6.90
2017-10-27T20:03:42.608Z,6.90
2017-10-27T20:06:10.448Z,6.90
2017-10-27T20:08:38.836Z,6.70
2017-10-27T20:11:07.467Z,6.70
2017-10-27T20:13:35.081Z,6.60
2017-10-27T20:16:03.446Z,6.50
2017-10-27T20:18:31.837Z,6.50
2017-10-27T20:21:00.178Z,6.50
2017-10-27T20:23:27.807Z,6.50
2017-10-27T20:25:55.654Z,6.50
2017-10-27T20:28:23.337Z,6.50
2017-10-27T20:30:52.989Z,6.40
2017-10-27T20:33:20.702Z,6.50
2017-10-27T20:35:48.272Z,6.50
2017-10-27T20:38:16.134Z,6.50
2017-10-27T20:40:47.704Z,6.50
2017-10-27T20:43:15.643Z,6.60
2017-10-27T20:45:43.289Z,6.70
2017-10-27T20:48:10.877Z,6.70
2017-10-27T20:50:38.488Z,6.70
2017-10-27T20:53:06.874Z,6.60
2017-10-27T20:55:35.605Z,6.60
2017-10-27T20:58:03.252Z,6.60
2017-10-27T21:00:30.873Z,6.60
2017-10-27T21:02:58.554Z,6.60
2017-10-27T21:05:35.476Z,6.50
2017-10-27T21:08:03.836Z,6.50
2017-10-27T21:10:31.470Z,6.40
2017-10-27T21:12:59.139Z,6.50
2017-10-27T21:15:27.117Z,6.40
2017-10-27T21:17:54.825Z,6.40
2017-10-27T21:20:23.254Z,6.20
2017-10-27T21:22:51.378Z,6.20
2017-10-27T21:25:19.158Z,6.20
2017-10-27T21:27:47.525Z,6.00
2017-10-27T21:30:15.292Z,6.00
2017-10-27T21:32:42.928Z,5.90
2017-10-27T21:35:10.565Z,5.90
2017-10-27T21:37:38.237Z,5.90
2017-10-27T21:40:06.103Z,6.00
2017-10-27T21:42:33.749Z,6.00
2017-10-27T21:45:01.363Z,6.10
2017-10-27T21:47:28.994Z,6.10
2017-10-27T21:49:56.631Z,6.10
2017-10-27T21:52:24.505Z,6.10
2017-10-27T21:54:52.353Z,6.10
2017-10-27T21:57:20.287Z,6.00
2017-10-27T21:59:48.770Z,6.00
2017-10-27T22:02:17.233Z,5.90
2017-10-27T22:04:44.873Z,5.90
2017-10-27T22:07:12.463Z,5.90
2017-10-27T22:09:40.118Z,6.00
2017-10-27T22:12:07.756Z,6.00
2017-10-27T22:14:35.641Z,6.00
2017-10-27T22:17:03.227Z,5.90
2017-10-27T22:19:30.878Z,5.90
2017-10-27T22:21:58.506Z,5.90
2017-10-27T22:24:26.148Z,5.90
2017-10-27T22:26:53.793Z,5.90
2017-10-27T22:29:21.416Z,5.90
2017-10-27T22:31:49.052Z,5.80
2017-10-27T22:34:16.632Z,5.80
2017-10-27T22:36:45.006Z,5.80
2017-10-27T22:39:12.614Z,5.80
2017-10-27T22:41:40.660Z,5.80
2017-10-27T22:44:08.995Z,5.80
2017-10-27T22:46:36.581Z,5.70
2017-10-27T22:49:04.198Z,5.80
2017-10-27T22:51:31.786Z,5.70
2017-10-27T22:53:59.387Z,5.70
2017-10-27T22:56:27.133Z,5.70
2017-10-27T22:58:55.791Z,5.70
2017-10-27T23:01:23.390Z,5.70
2017-10-27T23:03:50.991Z,5.60
2017-10-27T23:06:18.599Z,5.60
2017-10-27T23:08:47.143Z,5.60
2017-10-27T23:11:14.753Z,5.60
2017-10-27T23:13:43.095Z,5.60
2017-10-27T23:16:10.978Z,5.60
2017-10-27T23:18:38.563Z,5.60
2017-10-27T23:21:06.147Z,5.60
2017-10-27T23:23:33.747Z,5.60
2017-10-27T23:26:01.339Z,5.70
2017-10-27T23:28:30.021Z,5.60
2017-10-27T23:30:57.607Z,5.60
2017-10-27T23:33:25.197Z,5.60
2017-10-27T23:35:52.795Z,5.50
2017-10-27T23:38:21.238Z,5.60
2017-10-27T23:40:48.817Z,5.60
2017-10-27T23:43:16.792Z,5.60
2017-10-27T23:45:44.385Z,5.50
2017-10-27T23:48:11.981Z,5.40
2017-10-27T23:50:39.611Z,5.30
2017-10-27T23:53:07.209Z,5.20
2017-10-27T23:55:35.591Z,5.20
2017-10-27T23:58:03.190Z,5.20
